sensor_id;sensor_type;location;lat;lon;timestamp;P1;durP1;ratioP1;P2;durP2;ratioP2
40072;SDS011;25774;52.256;9.356;2023-03-11T08:08:49;3.20;;;0.88;;
40072;SDS011;25774;52.256;9.356;2023-03-11T08:11:14;4.03;;;0.73;;
40072;SDS011;25774;52.256;9.356;2023-03-11T08:13:40;4.57;;;1.52;;
40072;SDS011;25774;52.256;9.356;2023-03-11T08:16:07;4.13;;;1.05;;
40072;SDS011;25774;52.256;9.356;2023-03-11T08:18:33;4.38;;;0.95;;
40072;SDS011;25774;52.256;9.356;2023-03-11T08:20:58;9.65;;;1.00;;
40072;SDS011;25774;52.256;9.356;2023-03-11T08:23:27;3.83;;;1.02;;
40072;SDS011;25774;52.256;9.356;2023-03-11T08:25:53;3.80;;;1.00;;
40072;SDS011;25774;52.256;9.356;2023-03-11T08:28:18;6.07;;;0.77;;
40072;SDS011;25774;52.256;9.356;2023-03-11T08:30:43;9.67;;;1.63;;
40072;SDS011;25774;52.256;9.356;2023-03-11T08:33:08;4.43;;;0.70;;
40072;SDS011;25774;52.256;9.356;2023-03-11T08:35:33;3.93;;;0.97;;
40072;SDS011;25774;52.256;9.356;2023-03-11T08:37:59;3.90;;;0.70;;
40072;SDS011;25774;52.256;9.356;2023-03-11T08:40:24;11.43;;;0.97;;
40072;SDS011;25774;52.256;9.356;2023-03-11T08:42:49;1.80;;;0.83;;
40072;SDS011;25774;52.256;9.356;2023-03-11T08:45:14;7.73;;;1.83;;
40072;SDS011;25774;52.256;9.356;2023-03-11T08:47:39;5.07;;;1.10;;
40072;SDS011;25774;52.256;9.356;2023-03-11T08:50:06;2.80;;;0.77;;
40072;SDS011;25774;52.256;9.356;2023-03-11T08:54:56;3.67;;;0.75;;
40072;SDS011;25774;52.256;9.356;2023-03-11T08:57:22;4.55;;;1.33;;
40072;SDS011;25774;52.256;9.356;2023-03-11T08:59:47;4.77;;;0.60;;
40072;SDS011;25774;52.256;9.356;2023-03-11T09:02:12;5.07;;;0.90;;
40072;SDS011;25774;52.256;9.356;2023-03-11T09:04:37;4.63;;;1.00;;
40072;SDS011;25774;52.256;9.356;2023-03-11T09:07:02;6.73;;;1.03;;
40072;SDS011;25774;52.256;9.356;2023-03-11T09:09:28;5.30;;;0.80;;
40072;SDS011;25774;52.256;9.356;2023-03-11T09:11:53;3.20;;;0.90;;
40072;SDS011;25774;52.256;9.356;2023-03-11T09:14:18;4.20;;;0.90;;
40072;SDS011;25774;52.256;9.356;2023-03-11T09:16:43;5.30;;;1.03;;
40072;SDS011;25774;52.256;9.356;2023-03-11T09:19:09;3.77;;;1.00;;
40072;SDS011;25774;52.256;9.356;2023-03-11T09:21:35;2.95;;;0.65;;
40072;SDS011;25774;52.256;9.356;2023-03-11T09:24:01;3.13;;;0.73;;
40072;SDS011;25774;52.256;9.356;2023-03-11T09:26:28;6.20;;;1.33;;
40072;SDS011;25774;52.256;9.356;2023-03-11T09:28:53;4.93;;;1.03;;
40072;SDS011;25774;52.256;9.356;2023-03-11T09:31:19;3.97;;;0.93;;
40072;SDS011;25774;52.256;9.356;2023-03-11T09:33:44;5.57;;;0.80;;
40072;SDS011;25774;52.256;9.356;2023-03-11T09:36:11;7.45;;;1.15;;
40072;SDS011;25774;52.256;9.356;2023-03-11T09:42:05;5.95;;;0.82;;
40072;SDS011;25774;52.256;9.356;2023-03-11T09:54:29;2.90;;;0.70;;
40072;SDS011;25774;52.256;9.356;2023-03-11T09:56:58;5.65;;;0.88;;
40072;SDS011;25774;52.256;9.356;2023-03-11T09:59:26;5.85;;;0.70;;
40072;SDS011;25774;52.256;9.356;2023-03-11T10:01:54;4.38;;;1.02;;
40072;SDS011;25774;52.256;9.356;2023-03-11T10:04:21;1.53;;;0.70;;
40072;SDS011;25774;52.256;9.356;2023-03-11T10:06:47;2.90;;;0.95;;
40072;SDS011;25774;52.256;9.356;2023-03-11T10:11:53;4.40;;;1.20;;
40072;SDS011;25774;52.256;9.356;2023-03-11T10:20:25;2.42;;;0.63;;
40072;SDS011;25774;52.256;9.356;2023-03-11T10:25:40;1.90;;;0.70;;
40072;SDS011;25774;52.256;9.356;2023-03-11T10:28:11;5.05;;;0.80;;
40072;SDS011;25774;52.256;9.356;2023-03-11T10:30:39;3.40;;;0.98;;
40072;SDS011;25774;52.256;9.356;2023-03-11T10:36:11;3.45;;;1.00;;
40072;SDS011;25774;52.256;9.356;2023-03-11T10:38:47;2.33;;;0.93;;
40072;SDS011;25774;52.256;9.356;2023-03-11T10:41:24;6.50;;;1.08;;
40072;SDS011;25774;52.256;9.356;2023-03-11T10:44:12;6.88;;;0.93;;
40072;SDS011;25774;52.256;9.356;2023-03-11T10:46:37;2.28;;;0.60;;
40072;SDS011;25774;52.256;9.356;2023-03-11T10:49:04;5.50;;;1.03;;
40072;SDS011;25774;52.256;9.356;2023-03-11T10:53:56;3.07;;;1.00;;
40072;SDS011;25774;52.256;9.356;2023-03-11T10:58:53;5.32;;;1.20;;
40072;SDS011;25774;52.256;9.356;2023-03-11T11:01:19;2.53;;;1.38;;
40072;SDS011;25774;52.256;9.356;2023-03-11T11:03:46;3.33;;;0.88;;
40072;SDS011;25774;52.256;9.356;2023-03-11T11:06:24;4.15;;;0.80;;
40072;SDS011;25774;52.256;9.356;2023-03-11T11:11:21;2.40;;;0.68;;
40072;SDS011;25774;52.256;9.356;2023-03-11T11:13:57;6.00;;;0.70;;
40072;SDS011;25774;52.256;9.356;2023-03-11T11:16:23;3.92;;;1.00;;
40072;SDS011;25774;52.256;9.356;2023-03-11T11:18:54;3.90;;;0.87;;
40072;SDS011;25774;52.256;9.356;2023-03-11T11:21:27;4.75;;;0.70;;
40072;SDS011;25774;52.256;9.356;2023-03-11T11:26:37;4.28;;;0.90;;
40072;SDS011;25774;52.256;9.356;2023-03-11T11:31:34;3.13;;;1.23;;
40072;SDS011;25774;52.256;9.356;2023-03-11T11:34:00;1.88;;;0.70;;
40072;SDS011;25774;52.256;9.356;2023-03-11T11:36:29;3.67;;;1.00;;
40072;SDS011;25774;52.256;9.356;2023-03-11T11:38:55;7.32;;;1.10;;
40072;SDS011;25774;52.256;9.356;2023-03-11T11:41:21;3.92;;;0.70;;
40072;SDS011;25774;52.256;9.356;2023-03-11T11:43:51;5.50;;;1.27;;
40072;SDS011;25774;52.256;9.356;2023-03-11T11:51:37;2.25;;;0.73;;
40072;SDS011;25774;52.256;9.356;2023-03-11T11:56:49;5.57;;;0.75;;
40072;SDS011;25774;52.256;9.356;2023-03-11T11:59:21;5.18;;;0.90;;
40072;SDS011;25774;52.256;9.356;2023-03-11T12:02:34;5.65;;;0.80;;
40072;SDS011;25774;52.256;9.356;2023-03-11T12:04:44;3.85;;;0.98;;
40072;SDS011;25774;52.256;9.356;2023-03-11T12:07:26;4.47;;;0.85;;
40072;SDS011;25774;52.256;9.356;2023-03-11T12:15:20;9.77;;;2.13;;
40072;SDS011;25774;52.256;9.356;2023-03-11T12:17:48;3.95;;;0.60;;
40072;SDS011;25774;52.256;9.356;2023-03-11T12:20:25;4.05;;;1.00;;
40072;SDS011;25774;52.256;9.356;2023-03-11T12:23:03;4.78;;;1.15;;
40072;SDS011;25774;52.256;9.356;2023-03-11T12:30:32;2.22;;;0.82;;
40072;SDS011;25774;52.256;9.356;2023-03-11T12:33:02;4.63;;;1.90;;
40072;SDS011;25774;52.256;9.356;2023-03-11T12:35:32;5.13;;;0.60;;
40072;SDS011;25774;52.256;9.356;2023-03-11T12:45:58;3.58;;;0.82;;
40072;SDS011;25774;52.256;9.356;2023-03-11T12:48:32;4.78;;;0.77;;
40072;SDS011;25774;52.256;9.356;2023-03-11T12:50:58;7.28;;;1.15;;
40072;SDS011;25774;52.256;9.356;2023-03-11T12:58:52;5.50;;;0.73;;
40072;SDS011;25774;52.256;9.356;2023-03-11T13:01:34;3.28;;;0.35;;
40072;SDS011;25774;52.256;9.356;2023-03-11T13:04:29;2.63;;;0.35;;
40072;SDS011;25774;52.256;9.356;2023-03-11T13:06:59;3.42;;;0.55;;
40072;SDS011;25774;52.256;9.356;2023-03-11T13:09:28;7.72;;;0.93;;
40072;SDS011;25774;52.256;9.356;2023-03-11T13:11:53;4.87;;;0.87;;
40072;SDS011;25774;52.256;9.356;2023-03-11T13:19:46;4.18;;;0.85;;
40072;SDS011;25774;52.256;9.356;2023-03-11T13:22:38;8.95;;;3.42;;
40072;SDS011;25774;52.256;9.356;2023-03-11T13:24:57;8.40;;;1.42;;
40072;SDS011;25774;52.256;9.356;2023-03-11T13:27:27;8.10;;;1.20;;
40072;SDS011;25774;52.256;9.356;2023-03-11T13:42:49;3.28;;;0.65;;
40072;SDS011;25774;52.256;9.356;2023-03-11T13:45:18;4.32;;;1.40;;
40072;SDS011;25774;52.256;9.356;2023-03-11T13:47:46;2.00;;;1.15;;
40072;SDS011;25774;52.256;9.356;2023-03-11T13:50:17;4.38;;;0.98;;
40072;SDS011;25774;52.256;9.356;2023-03-11T13:52:48;5.72;;;1.60;;
40072;SDS011;25774;52.256;9.356;2023-03-11T13:55:18;4.93;;;0.80;;
40072;SDS011;25774;52.256;9.356;2023-03-11T14:00:16;3.00;;;0.70;;
40072;SDS011;25774;52.256;9.356;2023-03-11T14:05:12;3.85;;;0.65;;
40072;SDS011;25774;52.256;9.356;2023-03-11T14:07:41;6.65;;;0.90;;
40072;SDS011;25774;52.256;9.356;2023-03-11T14:10:28;1.88;;;0.50;;
40072;SDS011;25774;52.256;9.356;2023-03-11T14:13:06;2.13;;;0.52;;
40072;SDS011;25774;52.256;9.356;2023-03-11T14:15:42;3.78;;;0.80;;
40072;SDS011;25774;52.256;9.356;2023-03-11T14:20:50;3.72;;;1.10;;
40072;SDS011;25774;52.256;9.356;2023-03-11T14:23:16;7.70;;;1.17;;
40072;SDS011;25774;52.256;9.356;2023-03-11T14:25:42;4.93;;;0.60;;
40072;SDS011;25774;52.256;9.356;2023-03-11T14:28:13;7.73;;;2.30;;
40072;SDS011;25774;52.256;9.356;2023-03-11T14:30:42;21.17;;;9.82;;
40072;SDS011;25774;52.256;9.356;2023-03-11T14:35:53;14.60;;;7.30;;
40072;SDS011;25774;52.256;9.356;2023-03-11T14:38:20;16.00;;;7.78;;
40072;SDS011;25774;52.256;9.356;2023-03-11T14:43:11;10.77;;;4.97;;
40072;SDS011;25774;52.256;9.356;2023-03-11T14:45:37;10.87;;;4.10;;
40072;SDS011;25774;52.256;9.356;2023-03-11T14:50:32;8.57;;;3.10;;
40072;SDS011;25774;52.256;9.356;2023-03-11T14:55:43;7.43;;;2.60;;
40072;SDS011;25774;52.256;9.356;2023-03-11T15:00:42;3.47;;;1.03;;
40072;SDS011;25774;52.256;9.356;2023-03-11T15:03:12;6.25;;;1.65;;
40072;SDS011;25774;52.256;9.356;2023-03-11T15:06:02;2.80;;;0.80;;
40072;SDS011;25774;52.256;9.356;2023-03-11T15:08:33;5.03;;;1.00;;
40072;SDS011;25774;52.256;9.356;2023-03-11T15:13:31;3.28;;;0.70;;
40072;SDS011;25774;52.256;9.356;2023-03-11T15:16:06;3.40;;;1.23;;
40072;SDS011;25774;52.256;9.356;2023-03-11T15:18:41;4.90;;;1.92;;
40072;SDS011;25774;52.256;9.356;2023-03-11T15:23:43;4.10;;;1.52;;
40072;SDS011;25774;52.256;9.356;2023-03-11T15:26:22;4.57;;;0.98;;
40072;SDS011;25774;52.256;9.356;2023-03-11T15:28:52;4.63;;;0.95;;
40072;SDS011;25774;52.256;9.356;2023-03-11T15:33:47;5.93;;;1.52;;
40072;SDS011;25774;52.256;9.356;2023-03-11T15:41:41;19.47;;;7.00;;
40072;SDS011;25774;52.256;9.356;2023-03-11T15:47:15;39.55;;;14.00;;
40072;SDS011;25774;52.256;9.356;2023-03-11T15:49:41;33.28;;;13.23;;
40072;SDS011;25774;52.256;9.356;2023-03-11T15:52:06;15.13;;;7.23;;
40072;SDS011;25774;52.256;9.356;2023-03-11T15:54:32;9.63;;;3.73;;
40072;SDS011;25774;52.256;9.356;2023-03-11T15:56:57;8.33;;;3.80;;
40072;SDS011;25774;52.256;9.356;2023-03-11T15:59:25;7.28;;;1.65;;
40072;SDS011;25774;52.256;9.356;2023-03-11T16:01:51;6.78;;;2.13;;
40072;SDS011;25774;52.256;9.356;2023-03-11T16:04:17;8.57;;;2.10;;
40072;SDS011;25774;52.256;9.356;2023-03-11T16:06:43;5.10;;;1.38;;
40072;SDS011;25774;52.256;9.356;2023-03-11T16:09:08;8.02;;;1.92;;
40072;SDS011;25774;52.256;9.356;2023-03-11T16:11:34;6.93;;;2.20;;
40072;SDS011;25774;52.256;9.356;2023-03-11T16:13:59;4.87;;;1.70;;
40072;SDS011;25774;52.256;9.356;2023-03-11T16:16:25;5.07;;;1.57;;
40072;SDS011;25774;52.256;9.356;2023-03-11T16:18:51;3.53;;;1.50;;
40072;SDS011;25774;52.256;9.356;2023-03-11T16:21:17;2.43;;;1.13;;
40072;SDS011;25774;52.256;9.356;2023-03-11T16:23:43;7.38;;;1.80;;
40072;SDS011;25774;52.256;9.356;2023-03-11T16:28:34;6.13;;;1.40;;
40072;SDS011;25774;52.256;9.356;2023-03-11T16:30:59;8.03;;;2.03;;
40072;SDS011;25774;52.256;9.356;2023-03-11T16:33:25;7.40;;;1.63;;
40072;SDS011;25774;52.256;9.356;2023-03-11T16:35:51;5.45;;;2.60;;
40072;SDS011;25774;52.256;9.356;2023-03-11T16:38:16;6.87;;;2.67;;
40072;SDS011;25774;52.256;9.356;2023-03-11T16:40:46;5.40;;;2.80;;
40072;SDS011;25774;52.256;9.356;2023-03-11T16:43:18;5.72;;;2.15;;
40072;SDS011;25774;52.256;9.356;2023-03-11T16:45:43;24.33;;;10.37;;
40072;SDS011;25774;52.256;9.356;2023-03-11T16:48:09;19.25;;;8.48;;
40072;SDS011;25774;52.256;9.356;2023-03-11T16:50:34;12.63;;;5.00;;
40072;SDS011;25774;52.256;9.356;2023-03-11T16:52:59;8.20;;;2.90;;
40072;SDS011;25774;52.256;9.356;2023-03-11T16:55:26;8.07;;;2.20;;
40072;SDS011;25774;52.256;9.356;2023-03-11T16:57:51;14.95;;;5.68;;
40072;SDS011;25774;52.256;9.356;2023-03-11T17:00:18;11.68;;;4.78;;
40072;SDS011;25774;52.256;9.356;2023-03-11T17:02:44;19.93;;;5.47;;
40072;SDS011;25774;52.256;9.356;2023-03-11T17:05:09;7.73;;;3.00;;
40072;SDS011;25774;52.256;9.356;2023-03-11T17:07:35;8.60;;;2.75;;
40072;SDS011;25774;52.256;9.356;2023-03-11T17:10:00;6.87;;;2.40;;
40072;SDS011;25774;52.256;9.356;2023-03-11T17:12:26;3.87;;;1.60;;
40072;SDS011;25774;52.256;9.356;2023-03-11T17:14:51;11.23;;;1.40;;
40072;SDS011;25774;52.256;9.356;2023-03-11T17:17:17;7.47;;;1.23;;
40072;SDS011;25774;52.256;9.356;2023-03-11T17:19:42;3.20;;;1.30;;
40072;SDS011;25774;52.256;9.356;2023-03-11T17:22:08;4.07;;;1.20;;
40072;SDS011;25774;52.256;9.356;2023-03-11T17:24:33;3.27;;;1.10;;
40072;SDS011;25774;52.256;9.356;2023-03-11T17:26:59;3.72;;;0.90;;
40072;SDS011;25774;52.256;9.356;2023-03-11T17:29:25;3.37;;;0.97;;
40072;SDS011;25774;52.256;9.356;2023-03-11T17:31:50;2.87;;;0.77;;
40072;SDS011;25774;52.256;9.356;2023-03-11T17:34:15;3.23;;;1.10;;
40072;SDS011;25774;52.256;9.356;2023-03-11T17:36:42;3.80;;;0.77;;
40072;SDS011;25774;52.256;9.356;2023-03-11T17:39:07;2.30;;;0.93;;
40072;SDS011;25774;52.256;9.356;2023-03-11T17:41:33;4.67;;;1.40;;
40072;SDS011;25774;52.256;9.356;2023-03-11T17:43:58;2.85;;;0.68;;
40072;SDS011;25774;52.256;9.356;2023-03-11T17:46:24;7.03;;;1.33;;
40072;SDS011;25774;52.256;9.356;2023-03-11T17:48:51;6.07;;;1.37;;
40072;SDS011;25774;52.256;9.356;2023-03-11T17:51:17;3.55;;;1.10;;
40072;SDS011;25774;52.256;9.356;2023-03-11T17:53:43;5.40;;;1.98;;
40072;SDS011;25774;52.256;9.356;2023-03-11T17:56:10;4.03;;;1.98;;
40072;SDS011;25774;52.256;9.356;2023-03-11T17:58:36;5.30;;;2.10;;
40072;SDS011;25774;52.256;9.356;2023-03-11T18:01:05;8.50;;;1.90;;
40072;SDS011;25774;52.256;9.356;2023-03-11T18:03:31;5.53;;;2.78;;
40072;SDS011;25774;52.256;9.356;2023-03-11T18:05:57;5.93;;;2.70;;
40072;SDS011;25774;52.256;9.356;2023-03-11T18:08:23;6.03;;;2.47;;
40072;SDS011;25774;52.256;9.356;2023-03-11T18:10:52;5.07;;;2.13;;
40072;SDS011;25774;52.256;9.356;2023-03-11T18:13:18;4.82;;;1.77;;
40072;SDS011;25774;52.256;9.356;2023-03-11T18:15:44;5.95;;;1.70;;
40072;SDS011;25774;52.256;9.356;2023-03-11T18:18:09;31.97;;;12.57;;
40072;SDS011;25774;52.256;9.356;2023-03-11T18:20:37;20.43;;;8.60;;
40072;SDS011;25774;52.256;9.356;2023-03-11T18:23:03;9.27;;;4.90;;
40072;SDS011;25774;52.256;9.356;2023-03-11T18:25:28;14.77;;;6.43;;
40072;SDS011;25774;52.256;9.356;2023-03-11T18:27:54;10.00;;;4.37;;
40072;SDS011;25774;52.256;9.356;2023-03-11T18:30:20;6.17;;;3.50;;
40072;SDS011;25774;52.256;9.356;2023-03-11T18:35:10;4.50;;;1.35;;
40072;SDS011;25774;52.256;9.356;2023-03-11T18:37:38;6.03;;;1.80;;
40072;SDS011;25774;52.256;9.356;2023-03-11T18:40:04;5.93;;;1.70;;
40072;SDS011;25774;52.256;9.356;2023-03-11T18:42:31;6.90;;;1.88;;
40072;SDS011;25774;52.256;9.356;2023-03-11T18:44:56;4.13;;;1.37;;
40072;SDS011;25774;52.256;9.356;2023-03-11T18:47:21;4.67;;;1.33;;
40072;SDS011;25774;52.256;9.356;2023-03-11T18:49:46;3.77;;;1.40;;
40072;SDS011;25774;52.256;9.356;2023-03-11T18:52:11;2.63;;;1.20;;
40072;SDS011;25774;52.256;9.356;2023-03-11T18:54:37;2.40;;;1.20;;
40072;SDS011;25774;52.256;9.356;2023-03-11T18:57:02;4.43;;;1.23;;
40072;SDS011;25774;52.256;9.356;2023-03-11T18:59:27;7.03;;;1.50;;
40072;SDS011;25774;52.256;9.356;2023-03-11T19:01:53;4.67;;;1.57;;
40072;SDS011;25774;52.256;9.356;2023-03-11T19:04:20;4.25;;;1.40;;
40072;SDS011;25774;52.256;9.356;2023-03-11T19:06:45;5.75;;;1.55;;
40072;SDS011;25774;52.256;9.356;2023-03-11T19:09:11;8.02;;;1.67;;
40072;SDS011;25774;52.256;9.356;2023-03-11T19:11:36;4.60;;;1.23;;
40072;SDS011;25774;52.256;9.356;2023-03-11T19:14:03;5.33;;;1.33;;
40072;SDS011;25774;52.256;9.356;2023-03-11T19:16:28;2.70;;;0.95;;
40072;SDS011;25774;52.256;9.356;2023-03-11T19:18:54;6.80;;;0.97;;
40072;SDS011;25774;52.256;9.356;2023-03-11T19:21:20;3.97;;;1.30;;
40072;SDS011;25774;52.256;9.356;2023-03-11T19:23:46;2.85;;;1.13;;
40072;SDS011;25774;52.256;9.356;2023-03-11T19:26:13;7.57;;;1.42;;
40072;SDS011;25774;52.256;9.356;2023-03-11T19:28:38;3.83;;;1.53;;
40072;SDS011;25774;52.256;9.356;2023-03-11T19:31:03;2.27;;;0.80;;
40072;SDS011;25774;52.256;9.356;2023-03-11T19:33:29;6.40;;;1.40;;
40072;SDS011;25774;52.256;9.356;2023-03-11T19:35:55;4.70;;;1.70;;
40072;SDS011;25774;52.256;9.356;2023-03-11T19:38:21;4.13;;;1.80;;
40072;SDS011;25774;52.256;9.356;2023-03-11T19:40:50;5.97;;;2.33;;
40072;SDS011;25774;52.256;9.356;2023-03-11T19:43:15;3.92;;;1.50;;
40072;SDS011;25774;52.256;9.356;2023-03-11T19:45:45;6.20;;;1.90;;
40072;SDS011;25774;52.256;9.356;2023-03-11T19:48:10;11.02;;;2.83;;
40072;SDS011;25774;52.256;9.356;2023-03-11T19:50:35;8.57;;;3.77;;
40072;SDS011;25774;52.256;9.356;2023-03-11T19:53:01;6.83;;;2.33;;
40072;SDS011;25774;52.256;9.356;2023-03-11T19:55:26;7.57;;;1.80;;
40072;SDS011;25774;52.256;9.356;2023-03-11T19:57:51;6.90;;;1.50;;
40072;SDS011;25774;52.256;9.356;2023-03-11T20:00:17;5.10;;;1.43;;
40072;SDS011;25774;52.256;9.356;2023-03-11T20:02:44;5.00;;;1.30;;
40072;SDS011;25774;52.256;9.356;2023-03-11T20:05:09;3.25;;;1.40;;
40072;SDS011;25774;52.256;9.356;2023-03-11T20:07:34;7.23;;;1.70;;
40072;SDS011;25774;52.256;9.356;2023-03-11T20:10:01;5.30;;;1.80;;
40072;SDS011;25774;52.256;9.356;2023-03-11T20:12:28;6.13;;;1.90;;
40072;SDS011;25774;52.256;9.356;2023-03-11T20:14:53;7.10;;;2.03;;
40072;SDS011;25774;52.256;9.356;2023-03-11T20:17:18;5.47;;;2.43;;
40072;SDS011;25774;52.256;9.356;2023-03-11T20:19:44;5.97;;;1.80;;
40072;SDS011;25774;52.256;9.356;2023-03-11T20:22:09;5.85;;;2.13;;
40072;SDS011;25774;52.256;9.356;2023-03-11T20:24:35;10.53;;;1.97;;
40072;SDS011;25774;52.256;9.356;2023-03-11T20:27:00;3.93;;;1.47;;
40072;SDS011;25774;52.256;9.356;2023-03-11T20:29:25;5.93;;;2.13;;
40072;SDS011;25774;52.256;9.356;2023-03-11T20:31:50;5.43;;;2.00;;
40072;SDS011;25774;52.256;9.356;2023-03-11T20:34:16;4.60;;;1.87;;
40072;SDS011;25774;52.256;9.356;2023-03-11T20:36:41;5.50;;;1.80;;
40072;SDS011;25774;52.256;9.356;2023-03-11T20:39:07;4.90;;;2.03;;
40072;SDS011;25774;52.256;9.356;2023-03-11T20:41:33;7.07;;;2.13;;
40072;SDS011;25774;52.256;9.356;2023-03-11T20:43:59;6.45;;;1.73;;
40072;SDS011;25774;52.256;9.356;2023-03-11T20:46:24;3.27;;;1.50;;
40072;SDS011;25774;52.256;9.356;2023-03-11T20:48:50;9.17;;;1.83;;
40072;SDS011;25774;52.256;9.356;2023-03-11T20:51:16;6.77;;;2.37;;
40072;SDS011;25774;52.256;9.356;2023-03-11T20:53:43;4.32;;;1.83;;
40072;SDS011;25774;52.256;9.356;2023-03-11T20:56:10;5.43;;;1.40;;
40072;SDS011;25774;52.256;9.356;2023-03-11T20:58:36;4.05;;;1.30;;
40072;SDS011;25774;52.256;9.356;2023-03-11T21:01:18;2.65;;;1.23;;
40072;SDS011;25774;52.256;9.356;2023-03-11T21:03:44;7.57;;;1.60;;
40072;SDS011;25774;52.256;9.356;2023-03-11T21:06:13;4.23;;;1.20;;
40072;SDS011;25774;52.256;9.356;2023-03-11T21:08:39;5.50;;;2.20;;
40072;SDS011;25774;52.256;9.356;2023-03-11T21:11:05;5.33;;;1.73;;
40072;SDS011;25774;52.256;9.356;2023-03-11T21:13:30;2.45;;;1.48;;
40072;SDS011;25774;52.256;9.356;2023-03-11T21:15:57;6.00;;;1.88;;
40072;SDS011;25774;52.256;9.356;2023-03-11T21:18:22;4.47;;;1.87;;
40072;SDS011;25774;52.256;9.356;2023-03-11T21:20:47;6.37;;;1.60;;
40072;SDS011;25774;52.256;9.356;2023-03-11T21:23:12;3.70;;;1.87;;
40072;SDS011;25774;52.256;9.356;2023-03-11T21:25:39;7.57;;;2.37;;
40072;SDS011;25774;52.256;9.356;2023-03-11T21:28:07;7.47;;;2.00;;
40072;SDS011;25774;52.256;9.356;2023-03-11T21:30:32;6.25;;;1.77;;
40072;SDS011;25774;52.256;9.356;2023-03-11T21:32:57;3.73;;;1.93;;
40072;SDS011;25774;52.256;9.356;2023-03-11T21:35:22;4.90;;;2.03;;
40072;SDS011;25774;52.256;9.356;2023-03-11T21:37:47;4.03;;;1.60;;
40072;SDS011;25774;52.256;9.356;2023-03-11T21:40:13;6.67;;;1.97;;
40072;SDS011;25774;52.256;9.356;2023-03-11T21:42:38;4.97;;;1.60;;
40072;SDS011;25774;52.256;9.356;2023-03-11T21:45:03;3.27;;;1.10;;
40072;SDS011;25774;52.256;9.356;2023-03-11T21:47:28;5.30;;;1.40;;
40072;SDS011;25774;52.256;9.356;2023-03-11T21:49:54;5.50;;;2.33;;
40072;SDS011;25774;52.256;9.356;2023-03-11T21:52:19;4.53;;;2.03;;
40072;SDS011;25774;52.256;9.356;2023-03-11T21:54:44;6.10;;;1.97;;
40072;SDS011;25774;52.256;9.356;2023-03-11T21:57:09;2.90;;;1.20;;
40072;SDS011;25774;52.256;9.356;2023-03-11T21:59:36;5.70;;;1.63;;
40072;SDS011;25774;52.256;9.356;2023-03-11T22:02:01;3.85;;;1.67;;
40072;SDS011;25774;52.256;9.356;2023-03-11T22:04:27;4.97;;;2.00;;
40072;SDS011;25774;52.256;9.356;2023-03-11T22:06:52;3.22;;;1.58;;
40072;SDS011;25774;52.256;9.356;2023-03-11T22:09:17;6.47;;;2.38;;
40072;SDS011;25774;52.256;9.356;2023-03-11T22:11:42;4.20;;;1.73;;
40072;SDS011;25774;52.256;9.356;2023-03-11T22:14:08;10.67;;;1.73;;
40072;SDS011;25774;52.256;9.356;2023-03-11T22:16:33;4.40;;;1.53;;
40072;SDS011;25774;52.256;9.356;2023-03-11T22:18:59;4.70;;;1.75;;
40072;SDS011;25774;52.256;9.356;2023-03-11T22:21:24;3.67;;;1.40;;
40072;SDS011;25774;52.256;9.356;2023-03-11T22:23:49;4.87;;;1.33;;
40072;SDS011;25774;52.256;9.356;2023-03-11T22:26:15;7.17;;;1.50;;
40072;SDS011;25774;52.256;9.356;2023-03-11T22:28:42;4.15;;;1.10;;
40072;SDS011;25774;52.256;9.356;2023-03-11T22:31:08;2.17;;;1.10;;
40072;SDS011;25774;52.256;9.356;2023-03-11T22:33:33;5.35;;;2.33;;
40072;SDS011;25774;52.256;9.356;2023-03-11T22:35:59;3.58;;;1.55;;
40072;SDS011;25774;52.256;9.356;2023-03-11T22:38:26;5.82;;;1.63;;
40072;SDS011;25774;52.256;9.356;2023-03-11T22:40:51;2.80;;;1.63;;
40072;SDS011;25774;52.256;9.356;2023-03-11T22:43:16;4.47;;;1.90;;
40072;SDS011;25774;52.256;9.356;2023-03-11T22:45:43;4.30;;;1.80;;
40072;SDS011;25774;52.256;9.356;2023-03-11T22:48:08;4.20;;;1.77;;
40072;SDS011;25774;52.256;9.356;2023-03-11T22:50:33;2.70;;;1.27;;
40072;SDS011;25774;52.256;9.356;2023-03-11T22:52:58;8.63;;;2.17;;
40072;SDS011;25774;52.256;9.356;2023-03-11T22:55:24;9.40;;;1.90;;
40072;SDS011;25774;52.256;9.356;2023-03-11T22:57:49;5.43;;;2.50;;
40072;SDS011;25774;52.256;9.356;2023-03-11T23:00:16;5.40;;;2.20;;
40072;SDS011;25774;52.256;9.356;2023-03-11T23:02:45;5.95;;;2.08;;
40072;SDS011;25774;52.256;9.356;2023-03-11T23:05:11;6.13;;;2.28;;
40072;SDS011;25774;52.256;9.356;2023-03-11T23:10:02;15.25;;;4.50;;
40072;SDS011;25774;52.256;9.356;2023-03-11T23:12:28;10.75;;;3.92;;
40072;SDS011;25774;52.256;9.356;2023-03-11T23:14:53;12.43;;;4.27;;
40072;SDS011;25774;52.256;9.356;2023-03-11T23:17:18;9.40;;;3.40;;
40072;SDS011;25774;52.256;9.356;2023-03-11T23:19:43;12.13;;;3.37;;
40072;SDS011;25774;52.256;9.356;2023-03-11T23:22:09;10.83;;;3.80;;
40072;SDS011;25774;52.256;9.356;2023-03-11T23:24:34;12.27;;;4.10;;
40072;SDS011;25774;52.256;9.356;2023-03-11T23:26:59;10.23;;;3.27;;
40072;SDS011;25774;52.256;9.356;2023-03-11T23:29:25;12.63;;;5.63;;
40072;SDS011;25774;52.256;9.356;2023-03-11T23:31:50;7.30;;;3.37;;
40072;SDS011;25774;52.256;9.356;2023-03-11T23:34:16;10.70;;;4.43;;
40072;SDS011;25774;52.256;9.356;2023-03-11T23:36:41;10.23;;;3.92;;
40072;SDS011;25774;52.256;9.356;2023-03-11T23:39:06;6.83;;;2.43;;
40072;SDS011;25774;52.256;9.356;2023-03-11T23:41:32;6.83;;;1.67;;
40072;SDS011;25774;52.256;9.356;2023-03-11T23:43:57;11.27;;;2.07;;
40072;SDS011;25774;52.256;9.356;2023-03-11T23:46:22;5.90;;;2.03;;
40072;SDS011;25774;52.256;9.356;2023-03-11T23:48:47;4.67;;;1.77;;
40072;SDS011;25774;52.256;9.356;2023-03-11T23:51:12;3.30;;;1.23;;
40072;SDS011;25774;52.256;9.356;2023-03-11T23:53:38;7.20;;;2.30;;
40072;SDS011;25774;52.256;9.356;2023-03-11T23:56:07;7.45;;;2.78;;
40072;SDS011;25774;52.256;9.356;2023-03-11T23:58:32;8.82;;;2.80;;
